createdAt,value
2019-05-21T00:00:37.277Z,70.55
2019-05-21T00:03:08.778Z,71.67
2019-05-21T00:05:45.126Z,74.28
2019-05-21T00:08:20.585Z,75.06
2019-05-21T00:10:52.808Z,72.36
2019-05-21T00:13:26.224Z,71.29
2019-05-21T00:16:00.205Z,71.95
2019-05-21T00:18:35.370Z,79.67
2019-05-21T00:21:08.945Z,83.73
2019-05-21T00:23:42.152Z,86.18
2019-05-21T00:26:17.129Z,86.32
2019-05-21T00:29:28.759Z,84.62
2019-05-21T00:32:37.619Z,78.94
2019-05-21T00:35:45.664Z,79.24
2019-05-21T00:38:54.140Z,82.74
2019-05-21T00:41:59.830Z,83.85
2019-05-21T00:44:39.217Z,85.58
2019-05-21T00:47:13.516Z,85.05
2019-05-21T00:49:46.431Z,84.11
2019-05-21T00:52:18.502Z,85.17
2019-05-21T00:54:55.327Z,84.85
2019-05-21T00:57:27.326Z,83.34
2019-05-21T01:00:01.345Z,79.08
2019-05-21T01:02:42.426Z,75.05
2019-05-21T01:05:16.967Z,75.27
2019-05-21T01:07:48.397Z,76.52
2019-05-21T01:10:22.351Z,75.76
2019-05-21T01:12:55.770Z,75.61
2019-05-21T01:15:27.733Z,76.15
2019-05-21T01:18:01.799Z,76.43
2019-05-21T01:20:33.482Z,77.34
2019-05-21T01:23:07.709Z,75.99
2019-05-21T01:25:40.510Z,73.34
2019-05-21T01:28:12.624Z,73.27
2019-05-21T01:30:45.608Z,77.82
2019-05-21T01:33:18.453Z,80.32
2019-05-21T01:35:51.581Z,80.82
2019-05-21T01:38:23.711Z,78.94
2019-05-21T01:40:58.690Z,77.87
2019-05-21T01:43:32.455Z,74.10
2019-05-21T01:46:06.629Z,71.21
2019-05-21T01:48:39.656Z,72.01
2019-05-21T01:51:15.419Z,73.68
2019-05-21T01:53:49.599Z,75.70
2019-05-21T01:56:21.644Z,76.83
2019-05-21T01:58:55.640Z,77.54
2019-05-21T02:01:29.696Z,78.04
2019-05-21T02:04:03.897Z,78.28
2019-05-21T02:06:38.856Z,78.66
2019-05-21T02:09:13.016Z,79.38
2019-05-21T02:11:48.555Z,79.38
2019-05-21T02:14:21.879Z,77.89
2019-05-21T02:16:54.779Z,81.59
2019-05-21T02:19:33.158Z,82.84
2019-05-21T02:22:06.089Z,81.00
2019-05-21T02:24:42.877Z,76.62
2019-05-21T02:27:14.751Z,79.61
2019-05-21T02:29:46.747Z,79.42
2019-05-21T02:32:20.976Z,76.22
2019-05-21T02:34:53.997Z,76.81
2019-05-21T02:37:27.900Z,80.90
2019-05-21T02:40:13.524Z,82.93
2019-05-21T02:42:45.061Z,81.60
2019-05-21T02:45:18.834Z,82.96
2019-05-21T02:47:50.982Z,84.75
2019-05-21T02:50:27.364Z,82.23
2019-05-21T02:52:59.934Z,77.94
2019-05-21T02:55:33.011Z,76.04
2019-05-21T02:58:04.289Z,75.41
2019-05-21T03:00:56.633Z,75.32
2019-05-21T03:03:30.840Z,76.79
2019-05-21T03:06:13.970Z,77.71
2019-05-21T03:08:36.361Z,79.18
2019-05-21T03:11:09.168Z,81.53
2019-05-21T03:13:41.979Z,82.53
2019-05-21T03:16:14.979Z,82.40
2019-05-21T03:18:48.052Z,82.16
2019-05-21T03:21:21.377Z,81.41
2019-05-21T03:23:54.220Z,80.78
2019-05-21T03:26:28.043Z,81.52
2019-05-21T03:29:00.224Z,81.92
2019-05-21T03:31:34.177Z,81.01
2019-05-21T03:34:06.174Z,81.11
2019-05-21T03:36:37.339Z,79.34
2019-05-21T03:39:09.056Z,76.84
2019-05-21T03:41:43.137Z,77.42
2019-05-21T03:44:17.246Z,77.27
2019-05-21T03:46:52.855Z,77.29
2019-05-21T03:49:25.780Z,76.53
2019-05-21T03:51:58.154Z,75.85
2019-05-21T03:54:30.156Z,75.60
2019-05-21T03:57:02.216Z,77.60
2019-05-21T03:59:35.286Z,79.16
2019-05-21T04:02:10.292Z,78.22
2019-05-21T04:04:41.514Z,76.01
2019-05-21T04:07:15.483Z,75.29
2019-05-21T04:09:49.635Z,74.22
2019-05-21T04:12:21.349Z,73.32
2019-05-21T04:14:58.482Z,73.04
2019-05-21T04:17:51.975Z,73.53
2019-05-21T04:20:25.509Z,72.39
2019-05-21T04:22:58.412Z,72.12
2019-05-21T04:25:31.434Z,70.40
2019-05-21T04:28:04.379Z,69.59
2019-05-21T04:30:36.511Z,72.04
2019-05-21T04:33:07.914Z,71.87
2019-05-21T04:35:40.135Z,72.69
2019-05-21T04:38:12.396Z,74.71
2019-05-21T04:40:45.385Z,73.80
2019-05-21T04:43:18.685Z,73.17
2019-05-21T04:45:50.391Z,72.28
2019-05-21T04:48:24.410Z,72.37
2019-05-21T04:50:56.698Z,72.35
2019-05-21T04:53:31.843Z,71.61
2019-05-21T04:56:04.371Z,70.53
2019-05-21T04:58:36.662Z,71.99
2019-05-21T05:01:08.981Z,72.29
2019-05-21T05:03:42.539Z,71.72
2019-05-21T05:06:16.616Z,71.05
2019-05-21T05:08:48.518Z,70.04
2019-05-21T05:11:21.596Z,69.60
2019-05-21T05:13:54.480Z,68.80
2019-05-21T05:16:27.807Z,71.14
2019-05-21T05:19:00.470Z,71.31
2019-05-21T05:21:33.807Z,70.28
2019-05-21T05:24:09.155Z,68.92
2019-05-21T05:26:43.557Z,67.45
2019-05-21T05:29:16.732Z,66.21
2019-05-21T05:31:48.781Z,66.09
2019-05-21T05:34:24.052Z,67.16
2019-05-21T05:36:56.607Z,69.76
2019-05-21T05:39:29.367Z,70.06
2019-05-21T05:42:02.158Z,69.08
2019-05-21T05:44:35.853Z,69.16
2019-05-21T05:47:09.286Z,69.27
2019-05-21T05:49:45.456Z,71.07
2019-05-21T05:52:21.101Z,72.45
2019-05-21T05:54:53.639Z,71.45
2019-05-21T05:57:24.866Z,71.19
2019-05-21T05:59:56.842Z,70.94
2019-05-21T06:02:34.773Z,73.13
2019-05-21T06:05:16.727Z,72.55
2019-05-21T06:07:59.232Z,75.47
2019-05-21T06:10:24.897Z,73.01
2019-05-21T06:12:59.122Z,71.52
2019-05-21T06:15:33.678Z,70.29
2019-05-21T06:18:07.096Z,69.63
2019-05-21T06:20:38.597Z,70.88
2019-05-21T06:23:12.065Z,69.35
2019-05-21T06:25:46.140Z,68.56
2019-05-21T06:28:19.191Z,69.55
2019-05-21T06:31:26.756Z,69.79
2019-05-21T06:34:04.775Z,71.64
2019-05-21T06:36:38.427Z,72.65
2019-05-21T06:39:10.015Z,72.21
2019-05-21T06:41:42.127Z,69.69
2019-05-21T06:44:16.421Z,68.72
2019-05-21T06:46:49.166Z,67.79
2019-05-21T06:49:23.425Z,66.62
2019-05-21T06:51:56.990Z,66.24
2019-05-21T06:54:28.215Z,66.93
2019-05-21T06:57:01.030Z,67.79
2019-05-21T06:59:32.246Z,68.32
2019-05-21T07:02:07.716Z,66.68
2019-05-21T07:04:39.239Z,65.38
2019-05-21T07:07:12.312Z,63.67
2019-05-21T07:09:47.887Z,65.23
2019-05-21T07:12:19.269Z,65.69
2019-05-21T07:14:51.310Z,65.73
2019-05-21T07:17:25.353Z,64.74
2019-05-21T07:19:58.173Z,65.41
2019-05-21T07:22:31.190Z,62.86
2019-05-21T07:25:17.163Z,63.68
2019-05-21T07:27:50.357Z,64.66
2019-05-21T07:30:23.567Z,65.52
2019-05-21T07:32:57.279Z,64.13
2019-05-21T07:35:30.668Z,61.05
2019-05-21T07:38:04.436Z,57.64
2019-05-21T07:40:37.224Z,56.93
2019-05-21T07:43:10.536Z,56.76
2019-05-21T07:45:42.687Z,57.44
2019-05-21T07:48:16.309Z,57.21
2019-05-21T07:50:48.458Z,57.07
2019-05-21T07:53:21.474Z,57.68
2019-05-21T07:55:54.440Z,58.85
2019-05-21T07:58:27.488Z,59.43
2019-05-21T08:01:01.584Z,59.79
2019-05-21T08:03:35.040Z,59.91
2019-05-21T08:06:09.609Z,59.21
2019-05-21T08:08:42.551Z,60.59
2019-05-21T08:11:15.414Z,60.84
2019-05-21T08:13:49.453Z,63.18
2019-05-21T08:16:23.370Z,61.92
2019-05-21T08:18:57.316Z,60.63
2019-05-21T08:21:30.428Z,61.62
2019-05-21T08:24:02.543Z,63.25
2019-05-21T08:26:38.261Z,62.51
2019-05-21T08:29:09.701Z,64.77
2019-05-21T08:31:42.420Z,62.66
2019-05-21T08:34:16.427Z,60.79
2019-05-21T08:36:49.516Z,63.70
2019-05-21T08:39:28.982Z,63.76
2019-05-21T08:42:00.498Z,61.91
2019-05-21T08:44:32.578Z,62.41
2019-05-21T08:47:05.870Z,67.38
2019-05-21T08:49:38.969Z,68.07
2019-05-21T08:52:10.342Z,72.05
2019-05-21T08:54:51.017Z,78.32
2019-05-21T08:57:26.007Z,82.71
2019-05-21T08:59:58.885Z,85.35
2019-05-21T09:02:38.683Z,87.34
2019-05-21T09:05:16.120Z,86.31
2019-05-21T09:07:53.376Z,83.17
2019-05-21T09:10:26.039Z,84.30
2019-05-21T09:12:58.754Z,87.42
2019-05-21T09:15:30.818Z,86.32
2019-05-21T09:18:03.806Z,83.26
2019-05-21T09:20:37.873Z,78.46
2019-05-21T09:23:09.473Z,76.80
2019-05-21T09:25:42.798Z,76.93
2019-05-21T09:28:15.873Z,77.04
2019-05-21T09:30:48.250Z,77.16
2019-05-21T09:33:21.816Z,79.59
2019-05-21T09:35:54.785Z,80.41
2019-05-21T09:38:29.676Z,80.15
2019-05-21T09:41:03.920Z,81.01
2019-05-21T09:43:36.808Z,82.89
2019-05-21T09:46:08.826Z,78.41
2019-05-21T09:48:44.769Z,74.97
2019-05-21T09:51:20.860Z,74.12
2019-05-21T09:53:54.002Z,75.16
2019-05-21T09:56:35.626Z,73.76
2019-05-21T09:59:35.167Z,74.21
2019-05-21T10:02:11.408Z,75.49
2019-05-21T10:04:43.260Z,73.42
2019-05-21T10:07:16.116Z,72.73
2019-05-21T10:09:48.181Z,73.59
2019-05-21T10:12:22.039Z,74.66
2019-05-21T10:14:55.025Z,74.70
2019-05-21T10:17:27.992Z,75.29
2019-05-21T10:20:01.001Z,74.53
2019-05-21T10:22:43.573Z,75.86
2019-05-21T10:25:16.811Z,76.26
2019-05-21T10:27:48.278Z,76.32
2019-05-21T10:30:28.273Z,76.72
2019-05-21T10:33:02.419Z,77.18
2019-05-21T10:35:34.849Z,75.92
2019-05-21T10:38:07.218Z,75.42
2019-05-21T10:40:40.221Z,75.23
2019-05-21T10:43:13.305Z,75.76
2019-05-21T10:45:47.298Z,76.38
2019-05-21T10:48:20.807Z,75.61
2019-05-21T10:50:54.217Z,70.85
2019-05-21T10:53:29.795Z,68.27
2019-05-21T10:56:01.246Z,65.96
2019-05-21T10:58:34.224Z,65.25
2019-05-21T11:01:19.408Z,64.87
2019-05-21T11:04:10.013Z,65.41
2019-05-21T11:06:45.842Z,65.06
2019-05-21T11:09:22.748Z,65.70
2019-05-21T11:11:55.255Z,64.38
2019-05-21T11:14:30.518Z,62.32
2019-05-21T11:17:08.007Z,62.61
2019-05-21T11:19:39.236Z,62.76
2019-05-21T11:22:14.313Z,62.25
2019-05-21T11:24:52.045Z,62.10
2019-05-21T11:27:25.409Z,61.33
2019-05-21T11:29:59.018Z,61.51
2019-05-21T11:32:33.189Z,61.00
2019-05-21T11:35:18.594Z,62.83
2019-05-21T11:37:52.428Z,61.48
2019-05-21T11:40:26.609Z,62.64
2019-05-21T11:43:01.272Z,60.57
2019-05-21T11:45:34.392Z,59.65
2019-05-21T11:48:07.548Z,59.82
2019-05-21T11:50:41.308Z,59.61
2019-05-21T11:53:15.208Z,59.44
2019-05-21T11:55:49.493Z,59.79
2019-05-21T11:58:21.660Z,59.03
2019-05-21T12:00:57.002Z,59.16
2019-05-21T12:03:28.406Z,58.35
2019-05-21T12:05:59.896Z,59.25
2019-05-21T12:08:32.046Z,59.43
2019-05-21T12:11:05.530Z,59.36
2019-05-21T12:13:37.582Z,58.64
2019-05-21T12:16:09.884Z,60.10
2019-05-21T12:18:43.560Z,58.87
2019-05-21T12:21:18.572Z,58.89
2019-05-21T12:23:52.704Z,58.51
2019-05-21T12:26:27.613Z,58.64
2019-05-21T12:29:01.675Z,58.94
2019-05-21T12:31:34.579Z,57.91
2019-05-21T12:34:07.745Z,58.43
2019-05-21T12:36:41.388Z,58.99
2019-05-21T12:39:16.857Z,58.46
2019-05-21T12:41:48.983Z,58.05
2019-05-21T12:44:27.434Z,58.74
2019-05-21T12:47:02.474Z,59.29
2019-05-21T12:49:37.592Z,59.75
2019-05-21T12:52:09.822Z,58.69
2019-05-21T12:54:42.846Z,58.51
2019-05-21T12:57:14.662Z,57.66
2019-05-21T12:59:48.663Z,57.35
2019-05-21T13:02:22.562Z,56.79
2019-05-21T13:04:54.936Z,57.82
2019-05-21T13:07:30.009Z,57.34
2019-05-21T13:10:15.169Z,57.57
2019-05-21T13:12:50.801Z,57.83
2019-05-21T13:15:27.173Z,56.52
2019-05-21T13:17:58.818Z,56.77
2019-05-21T13:20:34.625Z,57.10
2019-05-21T13:23:09.560Z,56.17
2019-05-21T13:25:43.020Z,57.84
2019-05-21T13:28:18.276Z,56.67
2019-05-21T13:30:56.036Z,56.29
2019-05-21T13:33:29.301Z,56.24
2019-05-21T13:36:03.971Z,56.60
2019-05-21T13:38:36.985Z,56.79
2019-05-21T13:41:08.588Z,56.88
2019-05-21T13:43:41.646Z,57.35
2019-05-21T13:46:15.233Z,56.32
2019-05-21T13:48:49.463Z,56.87
2019-05-21T13:51:24.775Z,56.58
2019-05-21T13:53:58.625Z,56.39
2019-05-21T13:56:32.698Z,56.11
2019-05-21T13:59:08.034Z,56.33
2019-05-21T14:01:42.921Z,56.25
2019-05-21T14:04:17.418Z,56.56
2019-05-21T14:06:51.793Z,56.93
2019-05-21T14:09:23.049Z,56.58
2019-05-21T14:11:58.308Z,56.23
2019-05-21T14:14:30.314Z,57.20
2019-05-21T14:17:04.417Z,56.94
2019-05-21T14:19:36.347Z,56.74
2019-05-21T14:22:10.445Z,57.15
2019-05-21T14:24:42.548Z,56.63
2019-05-21T14:27:14.429Z,56.02
2019-05-21T14:29:48.021Z,56.79
2019-05-21T14:32:23.767Z,56.67
2019-05-21T14:35:01.464Z,57.47
2019-05-21T14:37:30.400Z,57.33
2019-05-21T14:40:30.335Z,57.00
2019-05-21T14:43:00.082Z,57.77
2019-05-21T14:45:29.963Z,58.16
2019-05-21T14:48:05.246Z,58.63
2019-05-21T14:50:37.569Z,58.36
2019-05-21T14:53:09.817Z,58.30
2019-05-21T14:55:45.082Z,57.92
2019-05-21T14:58:16.382Z,58.10
2019-05-21T15:00:49.154Z,57.26
2019-05-21T15:03:25.162Z,57.83
2019-05-21T15:05:56.515Z,57.98
2019-05-21T15:08:28.686Z,57.98
2019-05-21T15:11:03.324Z,58.01
2019-05-21T15:13:37.724Z,58.10
2019-05-21T15:16:09.981Z,57.89
2019-05-21T15:18:52.454Z,57.58
2019-05-21T15:21:34.141Z,57.48
2019-05-21T15:24:07.620Z,57.67
2019-05-21T15:26:42.488Z,57.54
2019-05-21T15:29:25.825Z,57.28
2019-05-21T15:31:59.994Z,57.18
2019-05-21T15:34:35.800Z,56.61
2019-05-21T15:37:07.801Z,56.16
2019-05-21T15:39:41.441Z,57.04
2019-05-21T15:42:13.583Z,57.14
2019-05-21T15:44:49.593Z,56.95
2019-05-21T15:47:25.130Z,57.29
2019-05-21T15:49:58.468Z,57.39
2019-05-21T15:52:30.858Z,56.86
2019-05-21T15:55:06.716Z,56.31
2019-05-21T15:57:44.285Z,56.89
2019-05-21T16:00:20.165Z,57.02
2019-05-21T16:02:52.624Z,56.66
2019-05-21T16:05:27.146Z,56.94
2019-05-21T16:07:59.034Z,57.19
2019-05-21T16:10:36.744Z,56.98
2019-05-21T16:13:08.598Z,56.50
2019-05-21T16:15:46.671Z,56.05
2019-05-21T16:18:20.187Z,56.74
2019-05-21T16:20:52.699Z,57.13
2019-05-21T16:23:25.709Z,56.50
2019-05-21T16:25:58.909Z,56.82
2019-05-21T16:28:31.667Z,56.37
2019-05-21T16:31:05.611Z,56.72
2019-05-21T16:33:39.050Z,56.65
2019-05-21T16:36:10.384Z,56.96
2019-05-21T16:38:44.177Z,57.49
2019-05-21T16:41:15.717Z,57.09
2019-05-21T16:43:50.602Z,57.28
2019-05-21T16:46:22.961Z,57.25
2019-05-21T16:48:55.951Z,57.10
2019-05-21T16:51:31.607Z,57.95
2019-05-21T16:54:04.852Z,58.00
2019-05-21T16:56:38.245Z,58.43
2019-05-21T16:59:10.047Z,58.81
2019-05-21T17:01:44.585Z,58.95
2019-05-21T17:04:15.884Z,59.01
2019-05-21T17:06:50.890Z,59.22
2019-05-21T17:09:28.122Z,60.12
2019-05-21T17:12:00.286Z,60.04
2019-05-21T17:14:33.211Z,60.15
2019-05-21T17:17:07.473Z,60.69
2019-05-21T17:19:40.120Z,60.82
2019-05-21T17:22:13.356Z,61.06
2019-05-21T17:24:46.131Z,60.91
2019-05-21T17:27:21.582Z,60.94
2019-05-21T17:29:55.992Z,61.13
2019-05-21T17:32:30.224Z,60.96
2019-05-21T17:35:13.095Z,61.14
2019-05-21T17:37:44.403Z,61.36
2019-05-21T17:40:29.722Z,62.04
2019-05-21T17:43:03.011Z,62.85
2019-05-21T17:45:35.142Z,64.42
2019-05-21T17:48:07.506Z,65.59
2019-05-21T17:50:44.956Z,66.29
2019-05-21T17:53:17.846Z,66.57
2019-05-21T17:56:00.898Z,67.07
2019-05-21T17:58:34.304Z,67.04
2019-05-21T18:01:10.133Z,67.03
2019-05-21T18:03:44.186Z,67.05
2019-05-21T18:06:20.271Z,67.66
2019-05-21T18:08:54.262Z,67.47
2019-05-21T18:11:30.030Z,67.38
2019-05-21T18:14:04.206Z,67.23
2019-05-21T18:16:38.643Z,67.03
2019-05-21T18:19:09.973Z,67.35
2019-05-21T18:21:43.490Z,67.56
2019-05-21T18:24:16.705Z,67.95
2019-05-21T18:26:49.444Z,67.70
2019-05-21T18:29:22.412Z,67.65
2019-05-21T18:31:55.405Z,68.21
2019-05-21T18:34:28.812Z,69.05
2019-05-21T18:37:06.435Z,69.20
2019-05-21T18:39:39.679Z,69.18
2019-05-21T18:42:21.676Z,69.14
2019-05-21T18:44:47.490Z,69.43
2019-05-21T18:47:21.672Z,69.77
2019-05-21T18:49:55.228Z,69.88
2019-05-21T18:52:28.446Z,69.96
2019-05-21T18:55:12.799Z,69.88
2019-05-21T18:57:46.804Z,69.45
2019-05-21T19:00:23.794Z,69.07
2019-05-21T19:02:57.554Z,68.84
2019-05-21T19:05:28.787Z,68.38
2019-05-21T19:08:03.199Z,68.07
2019-05-21T19:10:36.625Z,67.82
2019-05-21T19:13:09.003Z,67.60
2019-05-21T19:15:40.220Z,67.55
2019-05-21T19:18:13.653Z,67.48
2019-05-21T19:20:50.086Z,67.24
2019-05-21T19:23:22.638Z,66.78
2019-05-21T19:25:56.387Z,66.93
2019-05-21T19:28:29.441Z,66.84
2019-05-21T19:31:03.553Z,66.71
2019-05-21T19:33:39.303Z,66.44
2019-05-21T19:36:12.193Z,66.87
2019-05-21T19:38:48.457Z,67.27
2019-05-21T19:41:22.573Z,67.72
2019-05-21T19:43:56.735Z,68.39
2019-05-21T19:46:28.574Z,68.72
2019-05-21T19:49:02.774Z,69.73
2019-05-21T19:51:36.242Z,69.69
2019-05-21T19:54:09.670Z,70.14
2019-05-21T19:56:45.539Z,70.07
2019-05-21T19:59:22.591Z,70.20
2019-05-21T20:01:53.787Z,70.76
2019-05-21T20:04:40.342Z,70.92
2019-05-21T20:07:16.111Z,71.39
2019-05-21T20:09:53.087Z,71.92
2019-05-21T20:12:47.208Z,71.65
2019-05-21T20:15:22.642Z,71.58
2019-05-21T20:18:07.076Z,71.85
2019-05-21T20:20:37.969Z,71.81
2019-05-21T20:23:13.889Z,71.70
2019-05-21T20:25:56.437Z,71.61
2019-05-21T20:28:24.265Z,71.40
2019-05-21T20:30:59.422Z,71.38
2019-05-21T20:33:32.347Z,71.05
2019-05-21T20:36:06.410Z,70.91
2019-05-21T20:38:40.146Z,70.58
2019-05-21T20:41:22.966Z,70.50
2019-05-21T20:43:59.637Z,70.17
2019-05-21T20:46:36.064Z,70.07
2019-05-21T20:49:08.384Z,69.99
2019-05-21T20:51:44.233Z,69.94
2019-05-21T20:54:18.474Z,69.96
2019-05-21T20:56:51.986Z,69.88
2019-05-21T20:59:23.425Z,69.61
2019-05-21T21:01:58.334Z,69.38
2019-05-21T21:04:31.283Z,68.94
2019-05-21T21:07:05.229Z,68.73
2019-05-21T21:09:39.147Z,68.79
2019-05-21T21:12:11.809Z,68.65
2019-05-21T21:14:48.707Z,68.56
2019-05-21T21:17:23.288Z,68.56
2019-05-21T21:19:59.171Z,68.57
2019-05-21T21:22:42.530Z,68.59
2019-05-21T21:25:21.932Z,68.56
2019-05-21T21:27:54.868Z,68.17
2019-05-21T21:30:26.640Z,68.27
2019-05-21T21:33:04.549Z,68.21
2019-05-21T21:35:38.371Z,68.14
2019-05-21T21:38:13.681Z,68.41
2019-05-21T21:40:47.746Z,68.76
2019-05-21T21:43:22.483Z,69.05
2019-05-21T21:45:54.768Z,69.53
2019-05-21T21:48:27.654Z,69.67
2019-05-21T21:51:02.643Z,69.90
2019-05-21T21:53:36.064Z,69.99
2019-05-21T21:56:10.811Z,70.18
2019-05-21T21:58:44.071Z,70.22
2019-05-21T22:01:46.150Z,69.97
2019-05-21T22:04:25.976Z,70.09
2019-05-21T22:06:59.396Z,70.00
2019-05-21T22:09:34.927Z,70.02
2019-05-21T22:12:10.336Z,70.21
2019-05-21T22:14:51.643Z,70.23
2019-05-21T22:17:18.198Z,70.51
2019-05-21T22:19:53.265Z,70.66
2019-05-21T22:22:28.104Z,70.81
2019-05-21T22:24:59.432Z,70.61
2019-05-21T22:27:42.808Z,70.90
2019-05-21T22:30:19.104Z,71.01
2019-05-21T22:32:50.485Z,71.20
2019-05-21T22:35:22.583Z,71.47
2019-05-21T22:37:55.583Z,71.42
2019-05-21T22:40:29.478Z,71.26
2019-05-21T22:43:02.873Z,71.79
2019-05-21T22:45:37.398Z,71.51
2019-05-21T22:48:16.720Z,71.61
2019-05-21T22:50:50.753Z,72.02
2019-05-21T22:53:32.747Z,72.26
2019-05-21T22:56:06.183Z,72.47
2019-05-21T22:58:41.635Z,72.61
2019-05-21T23:01:17.427Z,72.92
2019-05-21T23:03:49.658Z,72.99
2019-05-21T23:06:24.854Z,73.22
2019-05-21T23:08:58.733Z,73.43
2019-05-21T23:11:30.194Z,73.36
2019-05-21T23:14:01.624Z,73.52
2019-05-21T23:16:33.983Z,73.28
2019-05-21T23:19:08.878Z,73.26
2019-05-21T23:21:41.383Z,73.48
2019-05-21T23:24:16.892Z,73.44
2019-05-21T23:26:51.346Z,73.65
2019-05-21T23:29:24.195Z,73.61
2019-05-21T23:31:58.454Z,73.58
2019-05-21T23:34:31.436Z,73.87
2019-05-21T23:37:09.195Z,73.93
2019-05-21T23:39:45.808Z,74.01
2019-05-21T23:42:29.452Z,74.14
2019-05-21T23:45:01.063Z,74.04
2019-05-21T23:47:45.877Z,74.14
2019-05-21T23:50:20.619Z,74.15
2019-05-21T23:52:53.930Z,74.27
2019-05-21T23:55:25.650Z,74.02
2019-05-21T23:58:00.791Z,73.89
